sensor_id;sensor_type;location;lat;lon;timestamp;temperature;humidity
38480;DHT22;62333;51.980;5.934;2024-03-02T00:02:15;11.80;67.00
38480;DHT22;62333;51.980;5.934;2024-03-02T00:04:44;11.80;66.80
38480;DHT22;62333;51.980;5.934;2024-03-02T00:07:14;11.80;67.00
38480;DHT22;62333;51.980;5.934;2024-03-02T00:09:40;11.80;67.10
38480;DHT22;62333;51.980;5.934;2024-03-02T00:12:06;11.70;67.70
38480;DHT22;62333;51.980;5.934;2024-03-02T00:14:31;11.70;67.20
38480;DHT22;62333;51.980;5.934;2024-03-02T00:16:57;11.70;67.40
38480;DHT22;62333;51.980;5.934;2024-03-02T00:19:24;11.70;67.40
38480;DHT22;62333;51.980;5.934;2024-03-02T00:21:50;11.70;67.50
38480;DHT22;62333;51.980;5.934;2024-03-02T00:24:34;11.70;67.50
38480;DHT22;62333;51.980;5.934;2024-03-02T00:27:01;11.70;67.30
38480;DHT22;62333;51.980;5.934;2024-03-02T00:29:31;11.70;67.40
38480;DHT22;62333;51.980;5.934;2024-03-02T00:31:57;11.70;67.50
38480;DHT22;62333;51.980;5.934;2024-03-02T00:34:23;11.70;67.60
38480;DHT22;62333;51.980;5.934;2024-03-02T00:36:49;11.70;67.60
38480;DHT22;62333;51.980;5.934;2024-03-02T00:39:15;11.60;67.60
38480;DHT22;62333;51.980;5.934;2024-03-02T00:41:42;11.70;67.60
38480;DHT22;62333;51.980;5.934;2024-03-02T00:44:11;11.60;67.50
38480;DHT22;62333;51.980;5.934;2024-03-02T00:46:42;11.70;67.60
38480;DHT22;62333;51.980;5.934;2024-03-02T00:49:21;11.70;67.70
38480;DHT22;62333;51.980;5.934;2024-03-02T00:51:49;11.60;67.90
38480;DHT22;62333;51.980;5.934;2024-03-02T00:54:15;11.60;67.90
38480;DHT22;62333;51.980;5.934;2024-03-02T00:56:41;11.60;67.80
38480;DHT22;62333;51.980;5.934;2024-03-02T00:59:07;11.70;67.80
38480;DHT22;62333;51.980;5.934;2024-03-02T01:01:34;11.70;67.70
38480;DHT22;62333;51.980;5.934;2024-03-02T01:04:00;11.70;67.80
38480;DHT22;62333;51.980;5.934;2024-03-02T01:06:25;11.70;67.80
38480;DHT22;62333;51.980;5.934;2024-03-02T01:08:51;11.70;67.70
38480;DHT22;62333;51.980;5.934;2024-03-02T01:11:17;11.70;67.80
38480;DHT22;62333;51.980;5.934;2024-03-02T01:13:47;11.70;67.90
38480;DHT22;62333;51.980;5.934;2024-03-02T01:16:13;11.80;68.00
38480;DHT22;62333;51.980;5.934;2024-03-02T01:18:39;11.70;67.90
38480;DHT22;62333;51.980;5.934;2024-03-02T01:21:04;11.80;68.00
38480;DHT22;62333;51.980;5.934;2024-03-02T01:23:30;11.80;68.00
38480;DHT22;62333;51.980;5.934;2024-03-02T01:25:56;11.80;68.10
38480;DHT22;62333;51.980;5.934;2024-03-02T01:28:21;11.80;68.20
38480;DHT22;62333;51.980;5.934;2024-03-02T01:30:47;11.80;68.20
38480;DHT22;62333;51.980;5.934;2024-03-02T01:33:13;11.80;68.30
38480;DHT22;62333;51.980;5.934;2024-03-02T01:35:39;11.80;68.30
38480;DHT22;62333;51.980;5.934;2024-03-02T01:38:05;11.80;68.30
38480;DHT22;62333;51.980;5.934;2024-03-02T01:40:34;11.90;68.40
38480;DHT22;62333;51.980;5.934;2024-03-02T01:43:00;11.90;68.50
38480;DHT22;62333;51.980;5.934;2024-03-02T01:45:26;12.00;68.60
38480;DHT22;62333;51.980;5.934;2024-03-02T01:47:52;11.90;68.50
38480;DHT22;62333;51.980;5.934;2024-03-02T01:50:32;12.00;68.60
38480;DHT22;62333;51.980;5.934;2024-03-02T01:52:59;12.10;68.30
38480;DHT22;62333;51.980;5.934;2024-03-02T01:55:25;12.00;68.70
38480;DHT22;62333;51.980;5.934;2024-03-02T01:57:52;12.00;68.80
38480;DHT22;62333;51.980;5.934;2024-03-02T02:00:21;12.00;68.90
38480;DHT22;62333;51.980;5.934;2024-03-02T02:02:48;12.00;69.00
38480;DHT22;62333;51.980;5.934;2024-03-02T02:05:14;12.00;69.10
38480;DHT22;62333;51.980;5.934;2024-03-02T02:07:41;12.00;69.00
38480;DHT22;62333;51.980;5.934;2024-03-02T02:10:08;12.00;69.20
38480;DHT22;62333;51.980;5.934;2024-03-02T02:12:33;12.00;69.50
38480;DHT22;62333;51.980;5.934;2024-03-02T02:14:59;12.00;69.60
38480;DHT22;62333;51.980;5.934;2024-03-02T02:17:25;12.00;69.70
38480;DHT22;62333;51.980;5.934;2024-03-02T02:19:50;11.90;70.00
38480;DHT22;62333;51.980;5.934;2024-03-02T02:22:16;11.90;70.30
38480;DHT22;62333;51.980;5.934;2024-03-02T02:24:42;11.90;70.70
38480;DHT22;62333;51.980;5.934;2024-03-02T02:27:08;11.90;70.80
38480;DHT22;62333;51.980;5.934;2024-03-02T02:29:35;11.90;70.80
38480;DHT22;62333;51.980;5.934;2024-03-02T02:32:01;11.90;70.90
38480;DHT22;62333;51.980;5.934;2024-03-02T02:34:26;11.90;70.80
38480;DHT22;62333;51.980;5.934;2024-03-02T02:36:52;12.00;70.70
38480;DHT22;62333;51.980;5.934;2024-03-02T02:39:21;12.00;70.60
38480;DHT22;62333;51.980;5.934;2024-03-02T02:41:48;12.00;70.70
38480;DHT22;62333;51.980;5.934;2024-03-02T02:44:13;11.90;70.60
38480;DHT22;62333;51.980;5.934;2024-03-02T02:46:40;12.00;70.70
38480;DHT22;62333;51.980;5.934;2024-03-02T02:49:06;12.00;70.50
38480;DHT22;62333;51.980;5.934;2024-03-02T02:51:31;12.00;70.50
38480;DHT22;62333;51.980;5.934;2024-03-02T02:53:57;12.00;70.50
38480;DHT22;62333;51.980;5.934;2024-03-02T02:56:23;12.00;70.50
38480;DHT22;62333;51.980;5.934;2024-03-02T02:58:48;12.00;70.60
38480;DHT22;62333;51.980;5.934;2024-03-02T03:01:17;12.00;70.30
38480;DHT22;62333;51.980;5.934;2024-03-02T03:03:46;11.90;70.30
38480;DHT22;62333;51.980;5.934;2024-03-02T03:06:12;11.90;70.40
38480;DHT22;62333;51.980;5.934;2024-03-02T03:08:37;11.90;70.30
38480;DHT22;62333;51.980;5.934;2024-03-02T03:11:04;11.90;70.30
38480;DHT22;62333;51.980;5.934;2024-03-02T03:13:33;11.90;70.30
38480;DHT22;62333;51.980;5.934;2024-03-02T03:15:59;11.90;70.10
38480;DHT22;62333;51.980;5.934;2024-03-02T03:18:25;11.90;70.00
38480;DHT22;62333;51.980;5.934;2024-03-02T03:20:50;11.80;70.00
38480;DHT22;62333;51.980;5.934;2024-03-02T03:23:16;11.80;70.20
38480;DHT22;62333;51.980;5.934;2024-03-02T03:25:42;11.80;70.20
38480;DHT22;62333;51.980;5.934;2024-03-02T03:28:09;11.70;70.30
38480;DHT22;62333;51.980;5.934;2024-03-02T03:30:38;11.70;70.40
38480;DHT22;62333;51.980;5.934;2024-03-02T03:33:04;11.80;70.40
38480;DHT22;62333;51.980;5.934;2024-03-02T03:35:33;11.80;70.50
38480;DHT22;62333;51.980;5.934;2024-03-02T03:37:59;11.70;70.50
38480;DHT22;62333;51.980;5.934;2024-03-02T03:40:24;11.70;70.50
38480;DHT22;62333;51.980;5.934;2024-03-02T03:42:50;11.80;70.50
38480;DHT22;62333;51.980;5.934;2024-03-02T03:45:16;11.70;71.10
38480;DHT22;62333;51.980;5.934;2024-03-02T03:47:41;11.70;70.60
38480;DHT22;62333;51.980;5.934;2024-03-02T03:50:07;11.70;70.60
38480;DHT22;62333;51.980;5.934;2024-03-02T03:52:33;11.70;70.80
38480;DHT22;62333;51.980;5.934;2024-03-02T03:54:59;11.70;70.90
38480;DHT22;62333;51.980;5.934;2024-03-02T03:57:26;11.60;70.90
38480;DHT22;62333;51.980;5.934;2024-03-02T03:59:52;11.60;71.00
38480;DHT22;62333;51.980;5.934;2024-03-02T04:02:17;11.60;71.20
38480;DHT22;62333;51.980;5.934;2024-03-02T04:04:43;11.60;71.50
38480;DHT22;62333;51.980;5.934;2024-03-02T04:07:09;11.60;71.40
38480;DHT22;62333;51.980;5.934;2024-03-02T04:09:34;11.60;71.30
38480;DHT22;62333;51.980;5.934;2024-03-02T04:12:00;11.60;71.40
38480;DHT22;62333;51.980;5.934;2024-03-02T04:14:26;11.60;71.40
38480;DHT22;62333;51.980;5.934;2024-03-02T04:16:51;11.60;71.50
38480;DHT22;62333;51.980;5.934;2024-03-02T04:19:17;11.60;71.60
38480;DHT22;62333;51.980;5.934;2024-03-02T04:21:42;11.60;71.60
38480;DHT22;62333;51.980;5.934;2024-03-02T04:24:08;11.60;71.80
38480;DHT22;62333;51.980;5.934;2024-03-02T04:26:34;11.50;71.60
38480;DHT22;62333;51.980;5.934;2024-03-02T04:28:59;11.40;71.70
38480;DHT22;62333;51.980;5.934;2024-03-02T04:31:25;11.40;72.00
38480;DHT22;62333;51.980;5.934;2024-03-02T04:33:50;11.40;72.10
38480;DHT22;62333;51.980;5.934;2024-03-02T04:36:16;11.30;72.10
38480;DHT22;62333;51.980;5.934;2024-03-02T04:38:42;11.30;72.20
38480;DHT22;62333;51.980;5.934;2024-03-02T04:41:07;11.30;72.30
38480;DHT22;62333;51.980;5.934;2024-03-02T04:43:34;11.20;73.00
38480;DHT22;62333;51.980;5.934;2024-03-02T04:46:00;11.30;72.40
38480;DHT22;62333;51.980;5.934;2024-03-02T04:48:26;11.30;72.40
38480;DHT22;62333;51.980;5.934;2024-03-02T04:50:51;11.30;72.60
38480;DHT22;62333;51.980;5.934;2024-03-02T04:53:17;11.30;72.70
38480;DHT22;62333;51.980;5.934;2024-03-02T04:55:43;11.30;72.70
38480;DHT22;62333;51.980;5.934;2024-03-02T04:58:08;11.30;72.90
38480;DHT22;62333;51.980;5.934;2024-03-02T05:00:35;11.20;72.70
38480;DHT22;62333;51.980;5.934;2024-03-02T05:03:01;11.30;72.80
38480;DHT22;62333;51.980;5.934;2024-03-02T05:05:27;11.20;73.40
38480;DHT22;62333;51.980;5.934;2024-03-02T05:07:53;11.20;72.80
38480;DHT22;62333;51.980;5.934;2024-03-02T05:10:18;11.20;72.80
38480;DHT22;62333;51.980;5.934;2024-03-02T05:12:44;11.20;72.90
38480;DHT22;62333;51.980;5.934;2024-03-02T05:15:12;11.20;73.00
38480;DHT22;62333;51.980;5.934;2024-03-02T05:17:38;11.20;72.80
38480;DHT22;62333;51.980;5.934;2024-03-02T05:20:05;11.20;72.80
38480;DHT22;62333;51.980;5.934;2024-03-02T05:22:31;11.20;73.00
38480;DHT22;62333;51.980;5.934;2024-03-02T05:24:57;11.20;73.00
38480;DHT22;62333;51.980;5.934;2024-03-02T05:27:24;11.20;73.10
38480;DHT22;62333;51.980;5.934;2024-03-02T05:29:50;11.10;73.00
38480;DHT22;62333;51.980;5.934;2024-03-02T05:32:15;11.20;73.00
38480;DHT22;62333;51.980;5.934;2024-03-02T05:34:41;11.20;73.00
38480;DHT22;62333;51.980;5.934;2024-03-02T05:37:07;11.20;73.00
38480;DHT22;62333;51.980;5.934;2024-03-02T05:39:32;11.20;72.90
38480;DHT22;62333;51.980;5.934;2024-03-02T05:41:58;11.20;72.90
38480;DHT22;62333;51.980;5.934;2024-03-02T05:44:23;11.20;72.80
38480;DHT22;62333;51.980;5.934;2024-03-02T05:46:49;11.20;72.80
38480;DHT22;62333;51.980;5.934;2024-03-02T05:49:15;11.20;72.80
38480;DHT22;62333;51.980;5.934;2024-03-02T05:51:40;11.30;72.70
38480;DHT22;62333;51.980;5.934;2024-03-02T05:54:07;11.20;72.60
38480;DHT22;62333;51.980;5.934;2024-03-02T05:56:32;11.30;72.60
38480;DHT22;62333;51.980;5.934;2024-03-02T05:58:58;11.30;72.50
38480;DHT22;62333;51.980;5.934;2024-03-02T06:01:39;11.30;72.50
38480;DHT22;62333;51.980;5.934;2024-03-02T06:04:05;11.20;72.40
38480;DHT22;62333;51.980;5.934;2024-03-02T06:06:31;11.20;72.30
38480;DHT22;62333;51.980;5.934;2024-03-02T06:09:04;11.20;72.30
38480;DHT22;62333;51.980;5.934;2024-03-02T06:11:36;11.20;72.30
38480;DHT22;62333;51.980;5.934;2024-03-02T06:14:02;11.20;72.40
38480;DHT22;62333;51.980;5.934;2024-03-02T06:16:28;11.20;72.50
38480;DHT22;62333;51.980;5.934;2024-03-02T06:18:53;11.20;72.40
38480;DHT22;62333;51.980;5.934;2024-03-02T06:21:20;11.20;72.30
38480;DHT22;62333;51.980;5.934;2024-03-02T06:23:45;11.20;72.30
38480;DHT22;62333;51.980;5.934;2024-03-02T06:26:11;11.20;72.30
38480;DHT22;62333;51.980;5.934;2024-03-02T06:28:37;11.20;72.40
38480;DHT22;62333;51.980;5.934;2024-03-02T06:31:04;11.20;72.40
38480;DHT22;62333;51.980;5.934;2024-03-02T06:33:29;11.20;72.30
38480;DHT22;62333;51.980;5.934;2024-03-02T06:35:55;11.20;72.30
38480;DHT22;62333;51.980;5.934;2024-03-02T06:38:21;11.20;72.20
38480;DHT22;62333;51.980;5.934;2024-03-02T06:40:47;11.30;72.30
38480;DHT22;62333;51.980;5.934;2024-03-02T06:43:12;11.30;72.30
38480;DHT22;62333;51.980;5.934;2024-03-02T06:45:38;11.30;72.20
38480;DHT22;62333;51.980;5.934;2024-03-02T06:48:04;11.40;72.20
38480;DHT22;62333;51.980;5.934;2024-03-02T06:50:29;11.50;72.20
38480;DHT22;62333;51.980;5.934;2024-03-02T06:52:55;11.50;72.30
38480;DHT22;62333;51.980;5.934;2024-03-02T06:55:24;11.80;72.70
38480;DHT22;62333;51.980;5.934;2024-03-02T06:57:52;12.50;73.80
38480;DHT22;62333;51.980;5.934;2024-03-02T07:00:19;13.40;74.50
38480;DHT22;62333;51.980;5.934;2024-03-02T07:02:46;14.20;73.80
38480;DHT22;62333;51.980;5.934;2024-03-02T07:05:12;14.50;71.70
38480;DHT22;62333;51.980;5.934;2024-03-02T07:07:37;14.60;70.20
38480;DHT22;62333;51.980;5.934;2024-03-02T07:10:04;14.60;70.40
38480;DHT22;62333;51.980;5.934;2024-03-02T07:12:30;14.70;71.20
38480;DHT22;62333;51.980;5.934;2024-03-02T07:14:57;14.90;71.50
38480;DHT22;62333;51.980;5.934;2024-03-02T07:17:29;15.00;70.30
38480;DHT22;62333;51.980;5.934;2024-03-02T07:19:55;15.10;68.40
38480;DHT22;62333;51.980;5.934;2024-03-02T07:22:20;15.20;67.00
38480;DHT22;62333;51.980;5.934;2024-03-02T07:24:46;15.20;65.30
38480;DHT22;62333;51.980;5.934;2024-03-02T07:27:13;15.10;62.60
38480;DHT22;62333;51.980;5.934;2024-03-02T07:29:39;14.80;62.20
38480;DHT22;62333;51.980;5.934;2024-03-02T07:32:06;14.70;65.70
38480;DHT22;62333;51.980;5.934;2024-03-02T07:34:32;14.70;67.00
38480;DHT22;62333;51.980;5.934;2024-03-02T07:36:58;14.70;66.40
38480;DHT22;62333;51.980;5.934;2024-03-02T07:39:24;14.70;65.20
38480;DHT22;62333;51.980;5.934;2024-03-02T07:41:50;14.60;63.70
38480;DHT22;62333;51.980;5.934;2024-03-02T07:44:16;14.50;62.70
38480;DHT22;62333;51.980;5.934;2024-03-02T07:46:42;14.40;63.50
38480;DHT22;62333;51.980;5.934;2024-03-02T07:49:08;14.50;64.90
38480;DHT22;62333;51.980;5.934;2024-03-02T07:51:34;14.60;65.40
38480;DHT22;62333;51.980;5.934;2024-03-02T07:54:00;14.80;64.70
38480;DHT22;62333;51.980;5.934;2024-03-02T07:56:26;15.00;63.30
38480;DHT22;62333;51.980;5.934;2024-03-02T07:58:52;15.10;64.20
38480;DHT22;62333;51.980;5.934;2024-03-02T08:01:18;15.10;62.50
38480;DHT22;62333;51.980;5.934;2024-03-02T08:03:44;15.00;62.20
38480;DHT22;62333;51.980;5.934;2024-03-02T08:06:14;15.00;62.20
38480;DHT22;62333;51.980;5.934;2024-03-02T08:08:40;14.90;61.50
38480;DHT22;62333;51.980;5.934;2024-03-02T08:11:06;14.80;62.60
38480;DHT22;62333;51.980;5.934;2024-03-02T08:13:32;14.70;63.60
38480;DHT22;62333;51.980;5.934;2024-03-02T08:15:57;14.60;62.80
38480;DHT22;62333;51.980;5.934;2024-03-02T08:18:24;14.60;63.60
38480;DHT22;62333;51.980;5.934;2024-03-02T08:20:49;14.60;62.80
38480;DHT22;62333;51.980;5.934;2024-03-02T08:23:15;14.50;62.70
38480;DHT22;62333;51.980;5.934;2024-03-02T08:25:41;14.50;63.80
38480;DHT22;62333;51.980;5.934;2024-03-02T08:28:07;14.50;62.90
38480;DHT22;62333;51.980;5.934;2024-03-02T08:30:33;14.50;63.30
38480;DHT22;62333;51.980;5.934;2024-03-02T08:32:59;14.50;62.70
38480;DHT22;62333;51.980;5.934;2024-03-02T08:35:25;14.50;62.20
38480;DHT22;62333;51.980;5.934;2024-03-02T08:37:50;14.50;62.40
38480;DHT22;62333;51.980;5.934;2024-03-02T08:40:16;14.50;62.20
38480;DHT22;62333;51.980;5.934;2024-03-02T08:42:42;14.40;62.10
38480;DHT22;62333;51.980;5.934;2024-03-02T08:45:08;14.40;62.50
38480;DHT22;62333;51.980;5.934;2024-03-02T08:47:34;14.40;62.40
38480;DHT22;62333;51.980;5.934;2024-03-02T08:50:00;14.40;62.30
38480;DHT22;62333;51.980;5.934;2024-03-02T08:52:26;14.50;62.00
38480;DHT22;62333;51.980;5.934;2024-03-02T08:54:52;14.60;60.60
38480;DHT22;62333;51.980;5.934;2024-03-02T08:57:17;14.60;60.60
38480;DHT22;62333;51.980;5.934;2024-03-02T08:59:43;14.70;60.70
38480;DHT22;62333;51.980;5.934;2024-03-02T09:02:09;14.80;60.50
38480;DHT22;62333;51.980;5.934;2024-03-02T09:04:35;14.90;60.70
38480;DHT22;62333;51.980;5.934;2024-03-02T09:07:01;15.00;61.20
38480;DHT22;62333;51.980;5.934;2024-03-02T09:09:27;15.10;59.90
38480;DHT22;62333;51.980;5.934;2024-03-02T09:11:52;15.20;59.10
38480;DHT22;62333;51.980;5.934;2024-03-02T09:14:20;15.20;59.00
38480;DHT22;62333;51.980;5.934;2024-03-02T09:16:46;15.20;58.50
38480;DHT22;62333;51.980;5.934;2024-03-02T09:19:12;15.10;58.30
38480;DHT22;62333;51.980;5.934;2024-03-02T09:21:37;15.20;58.60
38480;DHT22;62333;51.980;5.934;2024-03-02T09:24:03;15.30;58.40
38480;DHT22;62333;51.980;5.934;2024-03-02T09:26:29;15.30;57.50
38480;DHT22;62333;51.980;5.934;2024-03-02T09:28:55;15.30;56.90
38480;DHT22;62333;51.980;5.934;2024-03-02T09:31:21;15.30;56.50
38480;DHT22;62333;51.980;5.934;2024-03-02T09:33:46;15.30;56.00
38480;DHT22;62333;51.980;5.934;2024-03-02T09:36:19;15.20;55.70
38480;DHT22;62333;51.980;5.934;2024-03-02T09:38:45;15.30;55.80
38480;DHT22;62333;51.980;5.934;2024-03-02T09:41:11;15.30;55.40
38480;DHT22;62333;51.980;5.934;2024-03-02T09:43:38;15.30;55.30
38480;DHT22;62333;51.980;5.934;2024-03-02T09:46:03;15.30;55.30
38480;DHT22;62333;51.980;5.934;2024-03-02T09:48:30;15.30;55.40
38480;DHT22;62333;51.980;5.934;2024-03-02T09:50:56;15.40;55.50
38480;DHT22;62333;51.980;5.934;2024-03-02T09:53:23;15.50;55.20
38480;DHT22;62333;51.980;5.934;2024-03-02T09:55:49;15.50;55.20
38480;DHT22;62333;51.980;5.934;2024-03-02T09:58:14;15.50;55.50
38480;DHT22;62333;51.980;5.934;2024-03-02T10:00:40;15.50;56.20
38480;DHT22;62333;51.980;5.934;2024-03-02T10:03:11;15.50;56.80
38480;DHT22;62333;51.980;5.934;2024-03-02T10:05:38;15.50;56.20
38480;DHT22;62333;51.980;5.934;2024-03-02T10:08:03;15.50;56.00
38480;DHT22;62333;51.980;5.934;2024-03-02T10:10:40;15.50;55.70
38480;DHT22;62333;51.980;5.934;2024-03-02T10:13:08;15.60;55.40
38480;DHT22;62333;51.980;5.934;2024-03-02T10:15:34;15.60;55.20
38480;DHT22;62333;51.980;5.934;2024-03-02T10:18:00;15.70;55.20
38480;DHT22;62333;51.980;5.934;2024-03-02T10:20:27;15.80;54.90
38480;DHT22;62333;51.980;5.934;2024-03-02T10:22:58;15.90;54.80
38480;DHT22;62333;51.980;5.934;2024-03-02T10:25:34;16.00;54.70
38480;DHT22;62333;51.980;5.934;2024-03-02T10:28:00;16.00;54.70
38480;DHT22;62333;51.980;5.934;2024-03-02T10:30:27;16.10;54.60
38480;DHT22;62333;51.980;5.934;2024-03-02T10:32:54;16.20;54.60
38480;DHT22;62333;51.980;5.934;2024-03-02T10:35:22;16.20;53.60
38480;DHT22;62333;51.980;5.934;2024-03-02T10:37:54;16.10;53.70
38480;DHT22;62333;51.980;5.934;2024-03-02T10:40:23;16.20;53.80
38480;DHT22;62333;51.980;5.934;2024-03-02T10:42:52;16.20;53.40
38480;DHT22;62333;51.980;5.934;2024-03-02T10:45:20;16.30;53.70
38480;DHT22;62333;51.980;5.934;2024-03-02T10:47:49;16.40;53.60
38480;DHT22;62333;51.980;5.934;2024-03-02T10:50:15;16.60;53.40
38480;DHT22;62333;51.980;5.934;2024-03-02T10:52:41;16.70;53.10
38480;DHT22;62333;51.980;5.934;2024-03-02T10:55:11;16.80;52.70
38480;DHT22;62333;51.980;5.934;2024-03-02T10:58:04;16.80;52.40
38480;DHT22;62333;51.980;5.934;2024-03-02T11:00:34;16.90;52.30
38480;DHT22;62333;51.980;5.934;2024-03-02T11:03:07;17.00;52.60
38480;DHT22;62333;51.980;5.934;2024-03-02T11:05:42;17.10;52.30
38480;DHT22;62333;51.980;5.934;2024-03-02T11:08:12;17.30;52.30
38480;DHT22;62333;51.980;5.934;2024-03-02T11:10:54;17.30;51.80
38480;DHT22;62333;51.980;5.934;2024-03-02T11:13:31;17.40;51.90
38480;DHT22;62333;51.980;5.934;2024-03-02T11:16:03;17.50;51.60
38480;DHT22;62333;51.980;5.934;2024-03-02T11:18:31;17.50;51.50
38480;DHT22;62333;51.980;5.934;2024-03-02T11:20:59;17.50;51.20
38480;DHT22;62333;51.980;5.934;2024-03-02T11:23:34;17.50;51.20
38480;DHT22;62333;51.980;5.934;2024-03-02T11:26:20;17.50;50.90
38480;DHT22;62333;51.980;5.934;2024-03-02T11:28:46;17.50;51.00
38480;DHT22;62333;51.980;5.934;2024-03-02T11:31:11;17.50;50.90
38480;DHT22;62333;51.980;5.934;2024-03-02T11:33:37;17.50;50.70
38480;DHT22;62333;51.980;5.934;2024-03-02T11:36:03;17.50;50.60
38480;DHT22;62333;51.980;5.934;2024-03-02T11:38:33;17.50;50.60
38480;DHT22;62333;51.980;5.934;2024-03-02T11:41:00;17.50;50.50
38480;DHT22;62333;51.980;5.934;2024-03-02T11:43:30;17.60;50.60
38480;DHT22;62333;51.980;5.934;2024-03-02T11:46:05;17.60;50.50
38480;DHT22;62333;51.980;5.934;2024-03-02T11:48:32;17.70;50.60
38480;DHT22;62333;51.980;5.934;2024-03-02T11:51:01;17.70;50.50
38480;DHT22;62333;51.980;5.934;2024-03-02T11:53:27;17.70;50.40
38480;DHT22;62333;51.980;5.934;2024-03-02T11:55:58;17.80;50.00
38480;DHT22;62333;51.980;5.934;2024-03-02T11:58:24;17.70;49.90
38480;DHT22;62333;51.980;5.934;2024-03-02T12:00:52;17.70;50.00
38480;DHT22;62333;51.980;5.934;2024-03-02T12:03:21;17.70;49.80
38480;DHT22;62333;51.980;5.934;2024-03-02T12:05:54;17.80;50.10
38480;DHT22;62333;51.980;5.934;2024-03-02T12:08:20;17.90;50.00
38480;DHT22;62333;51.980;5.934;2024-03-02T12:10:59;18.00;49.60
38480;DHT22;62333;51.980;5.934;2024-03-02T12:13:26;18.10;49.20
38480;DHT22;62333;51.980;5.934;2024-03-02T12:15:55;18.10;49.40
38480;DHT22;62333;51.980;5.934;2024-03-02T12:18:21;18.20;49.30
38480;DHT22;62333;51.980;5.934;2024-03-02T12:20:49;18.20;48.90
38480;DHT22;62333;51.980;5.934;2024-03-02T12:23:18;18.30;48.90
38480;DHT22;62333;51.980;5.934;2024-03-02T12:25:44;18.30;48.60
38480;DHT22;62333;51.980;5.934;2024-03-02T12:28:10;18.40;48.50
38480;DHT22;62333;51.980;5.934;2024-03-02T12:30:36;18.40;48.20
38480;DHT22;62333;51.980;5.934;2024-03-02T12:33:01;18.50;48.30
38480;DHT22;62333;51.980;5.934;2024-03-02T12:35:27;18.60;48.10
38480;DHT22;62333;51.980;5.934;2024-03-02T12:37:54;18.50;47.40
38480;DHT22;62333;51.980;5.934;2024-03-02T12:40:20;18.50;46.50
38480;DHT22;62333;51.980;5.934;2024-03-02T12:42:48;18.30;46.10
38480;DHT22;62333;51.980;5.934;2024-03-02T12:45:14;18.10;46.50
38480;DHT22;62333;51.980;5.934;2024-03-02T12:47:41;18.10;46.60
38480;DHT22;62333;51.980;5.934;2024-03-02T12:50:08;18.00;46.80
38480;DHT22;62333;51.980;5.934;2024-03-02T12:52:34;18.00;47.10
38480;DHT22;62333;51.980;5.934;2024-03-02T12:55:01;18.10;47.70
38480;DHT22;62333;51.980;5.934;2024-03-02T12:57:30;18.20;47.30
38480;DHT22;62333;51.980;5.934;2024-03-02T13:00:03;18.30;47.30
38480;DHT22;62333;51.980;5.934;2024-03-02T13:02:35;18.40;47.00
38480;DHT22;62333;51.980;5.934;2024-03-02T13:05:01;18.30;47.20
38480;DHT22;62333;51.980;5.934;2024-03-02T13:07:27;18.20;47.50
38480;DHT22;62333;51.980;5.934;2024-03-02T13:09:55;18.20;48.00
38480;DHT22;62333;51.980;5.934;2024-03-02T13:12:22;18.00;48.20
38480;DHT22;62333;51.980;5.934;2024-03-02T13:14:53;17.80;48.80
38480;DHT22;62333;51.980;5.934;2024-03-02T13:17:19;17.80;49.20
38480;DHT22;62333;51.980;5.934;2024-03-02T13:19:59;17.70;49.30
38480;DHT22;62333;51.980;5.934;2024-03-02T13:22:25;17.70;49.30
38480;DHT22;62333;51.980;5.934;2024-03-02T13:24:52;17.70;49.70
38480;DHT22;62333;51.980;5.934;2024-03-02T13:27:20;17.70;50.00
38480;DHT22;62333;51.980;5.934;2024-03-02T13:29:49;17.70;50.30
38480;DHT22;62333;51.980;5.934;2024-03-02T13:32:15;17.70;50.60
38480;DHT22;62333;51.980;5.934;2024-03-02T13:34:41;17.60;50.70
38480;DHT22;62333;51.980;5.934;2024-03-02T13:37:07;17.60;50.50
38480;DHT22;62333;51.980;5.934;2024-03-02T13:39:33;17.70;50.40
38480;DHT22;62333;51.980;5.934;2024-03-02T13:42:08;17.70;50.20
38480;DHT22;62333;51.980;5.934;2024-03-02T13:44:34;17.80;49.90
38480;DHT22;62333;51.980;5.934;2024-03-02T13:47:00;17.80;49.60
38480;DHT22;62333;51.980;5.934;2024-03-02T13:49:26;17.90;49.70
38480;DHT22;62333;51.980;5.934;2024-03-02T13:52:06;18.00;49.20
38480;DHT22;62333;51.980;5.934;2024-03-02T13:54:43;17.90;49.20
38480;DHT22;62333;51.980;5.934;2024-03-02T13:57:10;17.80;49.40
38480;DHT22;62333;51.980;5.934;2024-03-02T13:59:36;17.90;49.70
38480;DHT22;62333;51.980;5.934;2024-03-02T14:02:03;17.90;49.80
38480;DHT22;62333;51.980;5.934;2024-03-02T14:04:32;17.80;50.00
38480;DHT22;62333;51.980;5.934;2024-03-02T14:06:59;17.70;49.40
38480;DHT22;62333;51.980;5.934;2024-03-02T14:09:24;17.50;49.50
38480;DHT22;62333;51.980;5.934;2024-03-02T14:11:50;17.40;49.80
38480;DHT22;62333;51.980;5.934;2024-03-02T14:14:17;17.30;50.00
38480;DHT22;62333;51.980;5.934;2024-03-02T14:16:43;17.20;50.10
38480;DHT22;62333;51.980;5.934;2024-03-02T14:19:10;17.20;50.10
38480;DHT22;62333;51.980;5.934;2024-03-02T14:21:37;17.30;49.90
38480;DHT22;62333;51.980;5.934;2024-03-02T14:24:03;17.30;49.80
38480;DHT22;62333;51.980;5.934;2024-03-02T14:26:28;17.40;49.50
38480;DHT22;62333;51.980;5.934;2024-03-02T14:28:54;17.40;49.40
38480;DHT22;62333;51.980;5.934;2024-03-02T14:31:20;17.50;49.30
38480;DHT22;62333;51.980;5.934;2024-03-02T14:33:46;17.50;49.30
38480;DHT22;62333;51.980;5.934;2024-03-02T14:36:12;17.60;49.40
38480;DHT22;62333;51.980;5.934;2024-03-02T14:38:38;17.60;49.40
38480;DHT22;62333;51.980;5.934;2024-03-02T14:41:04;17.70;49.30
38480;DHT22;62333;51.980;5.934;2024-03-02T14:43:30;17.70;49.00
38480;DHT22;62333;51.980;5.934;2024-03-02T14:45:56;17.60;49.10
38480;DHT22;62333;51.980;5.934;2024-03-02T14:48:23;17.50;49.20
38480;DHT22;62333;51.980;5.934;2024-03-02T14:50:50;17.40;49.70
38480;DHT22;62333;51.980;5.934;2024-03-02T14:53:16;17.40;50.10
38480;DHT22;62333;51.980;5.934;2024-03-02T14:55:42;17.50;50.50
38480;DHT22;62333;51.980;5.934;2024-03-02T14:58:07;17.40;50.40
38480;DHT22;62333;51.980;5.934;2024-03-02T15:00:33;17.30;50.90
38480;DHT22;62333;51.980;5.934;2024-03-02T15:02:59;17.30;51.20
38480;DHT22;62333;51.980;5.934;2024-03-02T15:05:25;17.30;51.50
38480;DHT22;62333;51.980;5.934;2024-03-02T15:07:52;17.30;51.70
38480;DHT22;62333;51.980;5.934;2024-03-02T15:10:17;17.30;51.90
38480;DHT22;62333;51.980;5.934;2024-03-02T15:12:44;17.30;52.00
38480;DHT22;62333;51.980;5.934;2024-03-02T15:15:09;17.20;52.00
38480;DHT22;62333;51.980;5.934;2024-03-02T15:17:37;17.10;51.90
38480;DHT22;62333;51.980;5.934;2024-03-02T15:20:02;17.00;51.70
38480;DHT22;62333;51.980;5.934;2024-03-02T15:22:30;16.90;52.10
38480;DHT22;62333;51.980;5.934;2024-03-02T15:24:55;16.90;52.40
38480;DHT22;62333;51.980;5.934;2024-03-02T15:27:21;16.80;52.60
38480;DHT22;62333;51.980;5.934;2024-03-02T15:29:47;16.80;52.80